• Join FlightAware (Why Join?)
  • Login
  • US Flag 
01:39AM EDT


 

Airport Tracker/Info


-or-


 

Live Flight TrackerFlight Track Log ✈ N38GT ✈ 12-Oct-2013 ✈ KAPA - KTRM

Flight Track Log - Related Links

Times and Time Zones

All times are in EDT time to prevent confusion due to time zone crossing. See the N38GT flight status page for this flight to view local times or setup timezone preferences in your user account.

Time Position Orientation Groundspeed Altitude Reporting Facility
EDT Latitude Longitude Course Direction KTS MPH feet Rate Location/Type
01:39PM 39.5333 -104.8500 251° West 168 193 8,000  Level Denver TRACON
01:40PM 39.5000 -104.9167 237° Southwest 290 334 8,100 1,560 Climbing Denver TRACON
01:41PM 39.5167 -105.0000 285° West 273 314 11,200 2,640 Climbing Denver TRACON
01:42PM 39.5500 -105.1000 293° West 261 300 13,700 2,040 Climbing Denver TRACON
01:44PM 39.5603 -105.2122 277° West 272 313 16,000 1,800 Climbing Denver Center
01:45PM 39.3438 -105.3594 251° West  Level Estimated
01:45PM 39.5586 -105.3100 269° West 272 313 17,800  Level Denver Center
01:46PM 39.5567 -105.4142 269° West 271 312 19,000 1,260 Climbing Denver Center
01:47PM 39.5544 -105.5119 268° West 273 314 20,500 1,380 Climbing Denver Center
01:48PM 39.5517 -105.6139 268° West 268 308 21,900 1,200 Climbing Denver Center
01:49PM 39.5278 -105.7039 251° West 265 305 23,100 960 Climbing Denver Center
01:50PM 39.5022 -105.7953 250° West 270 311 24,000 840 Climbing Denver Center
01:51PM 39.4803 -105.8850 252° West 267 307 24,900 1,200 Climbing Denver Center
01:52PM 39.4539 -105.9808 250° West 278 320 26,600 1,740 Climbing Denver Center
01:53PM 39.4214 -106.0956 250° West 284 327 28,600 1,560 Climbing Denver Center
01:54PM 39.3950 -106.1864 249° West 293 337 29,900 1,500 Climbing Denver Center
01:55PM 39.3631 -106.2978 250° West 295 339 31,800 1,680 Climbing Denver Center
01:56PM 39.3364 -106.3906 250° West 290 334 33,400 1,560 Climbing Denver Center
01:57PM 39.3056 -106.4992 250° West 288 331 35,100 1,500 Climbing Denver Center
01:58PM 39.2794 -106.5906 250° West 285 328 36,600 1,500 Climbing Denver Center
01:59PM 39.2494 -106.6956 250° West 279 321 38,300 960 Climbing Denver Center
02:05PM 39.0008 -107.1889 250° West 319 367 43,000 600 Climbing FlightAware ADS-B (KMTJ)
02:07PM 38.9046 -107.3735 236° Southwest 343 395 43,000  Level FlightAware ADS-B (KMTJ)
02:10PM 38.7096 -107.7445 236° Southwest 351 404 43,000  Level FlightAware ADS-B (KMTJ)
02:12PM 38.6531 -107.8503 236° Southwest 349 402 43,000  Level Denver Center
02:17PM 38.3251 -108.4633 236° Southwest 350 403 43,000  Level FlightAware ADS-B (KMTJ)
02:18PM 38.2916 -108.5254 235° Southwest 350 403 43,000  Level FlightAware ADS-B (KMTJ)
02:19PM 38.2515 -108.5992 235° Southwest 349 402 43,000  Level FlightAware ADS-B (KMTJ)
02:20PM 38.1968 -108.6998 235° Southwest 347 399 43,000  Level FlightAware ADS-B (KMTJ)
02:22PM 38.0746 -108.9234 235° Southwest 347 399 43,000  Level FlightAware ADS-B (KMTJ)
02:23PM 38.0478 -108.9722 235° Southwest 347 399 43,000  Level FlightAware ADS-B (KMTJ)
02:24PM 37.9858 -109.0849 235° Southwest 346 398 43,000  Level FlightAware ADS-B (KMTJ)
02:25PM 37.9239 -109.1956 235° Southwest 344 396 43,000  Level Denver Center
02:26PM 37.8628 -109.3081 235° Southwest 347 399 43,000  Level Denver Center
02:27PM 37.8094 -109.4033 235° Southwest 348 400 43,000  Level Denver Center
02:28PM 37.7472 -109.5139 235° Southwest 346 398 43,000  Level Denver Center
02:29PM 37.6950 -109.6100 236° Southwest 346 398 43,000  Level Denver Center
02:30PM 37.6325 -109.7197 234° Southwest 346 398 43,000  Level Denver Center
02:31PM 37.5789 -109.8144 234° Southwest 347 399 43,000  Level Denver Center
02:32PM 37.5181 -109.9242 235° Southwest 344 396 43,000  Level Denver Center
02:33PM 37.4642 -110.0178 234° Southwest 344 396 43,000  Level Denver Center
02:34PM 37.4117 -110.1100 234° Southwest 340 391 43,000  Level Denver Center
02:35PM 37.3508 -110.2169 234° Southwest 338 389 43,000  Level Denver Center
02:36PM 37.2950 -110.3139 234° Southwest 342 394 43,000  Level Denver Center
02:37PM 37.2408 -110.4094 235° Southwest 339 390 43,000  Level Denver Center
02:38PM 37.1847 -110.5067 234° Southwest 342 394 43,000  Level Denver Center
02:39PM 37.1297 -110.6017 234° Southwest 338 389 43,000  Level Denver Center
02:40PM 37.0636 -110.7169 234° Southwest 337 388 43,000  Level Denver Center
02:41PM 37.0086 -110.8122 234° Southwest 337 388 43,000  Level Denver Center
02:42PM 36.9533 -110.9067 234° Southwest 337 388 43,000  Level Denver Center
02:43PM 36.8969 -111.0019 234° Southwest 340 391 43,000  Level Denver Center
02:45PM 36.8425 -111.0969 234° Southwest 337 388 43,000  Level Denver Center
02:46PM 36.7886 -111.1900 234° Southwest 333 383 43,000  Level Denver Center
02:47PM 36.7322 -111.2858 234° Southwest 338 389 43,000  Level Denver Center
02:48PM 36.6744 -111.3808 233° Southwest 342 394 43,000  Level Denver Center
02:49PM 36.6078 -111.4942 234° Southwest 340 391 43,000  Level Denver Center
02:50PM 36.5522 -111.5886 234° Southwest 339 390 43,000  Level Denver Center
02:51PM 36.4967 -111.6817 233° Southwest 335 386 43,000  Level Los Angeles Center
02:52PM 36.4411 -111.7750 234° Southwest 334 384 43,000  Level Los Angeles Center
02:53PM 36.3850 -111.8683 233° Southwest 336 387 43,000  Level Los Angeles Center
02:54PM 36.3297 -111.9614 234° Southwest 334 384 43,000  Level Los Angeles Center
02:58PM 36.0982 -112.3460 234° Southwest 334 384 43,000  Level FlightAware ADS-B (KPRC)
03:02PM 35.8324 -112.7810 233° Southwest 334 384 43,000  Level FlightAware ADS-B (KPRC)
03:04PM 35.7609 -112.8972 233° Southwest 338 389 43,000  Level FlightAware ADS-B (KPRC)
03:05PM 35.7041 -112.9890 233° Southwest 339 390 43,000  Level FlightAware ADS-B (KPRC)
03:05PM 35.6716 -113.0415 233° Southwest 339 390 43,000  Level FlightAware ADS-B (KPRC)
03:06PM 35.6175 -113.1269 233° Southwest 339 390 43,000  Level Los Angeles Center
03:07PM 35.5603 -113.2192 233° Southwest 339 390 43,000  Level Los Angeles Center
03:08PM 35.5100 -113.3017 233° Southwest 339 390 43,000  Level Los Angeles Center
03:09PM 35.4528 -113.3922 232° Southwest 340 391 43,000  Level Los Angeles Center
03:10PM 35.3858 -113.5019 233° Southwest 339 390 43,000  Level Los Angeles Center
03:11PM 35.3283 -113.5911 232° Southwest 337 388 43,000  Level Los Angeles Center
03:14PM 35.1718 -113.8390 232° Southwest 330 380 43,000  Level FlightAware ADS-B (KPRC)
03:15PM 35.1456 -113.8781 232° Southwest 332 382 43,000 -960 Level Los Angeles Center
03:16PM 35.0900 -113.9658 232° Southwest 332 382 41,400 -1,800 Descending Los Angeles Center
03:17PM 35.0206 -114.0747 232° Southwest 336 387 39,000 -2,220 Descending Los Angeles Center
03:18PM 34.9614 -114.1678 232° Southwest 343 395 36,900 -2,040 Descending Los Angeles Center
03:19PM 34.9031 -114.2606 233° Southwest 345 397 34,800 -2,280 Descending Los Angeles Center
03:20PM 34.8308 -114.3719 232° Southwest 347 399 32,300 -2,280 Descending Los Angeles Center
03:21PM 34.7697 -114.4669 232° Southwest 353 406 30,200 -1,140 Descending Los Angeles Center
03:22PM 34.7056 -114.5644 231° Southwest 366 421 30,000 -120 Descending Los Angeles Center
03:23PM 34.6472 -114.6514 231° Southwest 365 420 30,000 -60 Level Los Angeles Center
03:24PM 34.5706 -114.7686 232° Southwest 368 423 29,900 -780 Descending Los Angeles Center
03:25PM 34.5053 -114.8669 231° Southwest 373 429 28,500 -1,320 Descending Los Angeles Center
03:26PM 34.4403 -114.9639 231° Southwest 374 430 27,200 -1,380 Descending Los Angeles Center
03:27PM 34.3744 -115.0625 231° Southwest 377 434 25,700 -1,380 Descending Los Angeles Center
03:28PM 34.3086 -115.1600 231° Southwest 375 432 24,400 -1,380 Descending Los Angeles Center
03:29PM 34.2442 -115.2558 231° Southwest 370 426 22,900 -1,500 Descending Los Angeles Center
03:30PM 34.1706 -115.3681 232° Southwest 358 412 21,300 -1,500 Descending Los Angeles Center
03:31PM 34.1233 -115.4733 242° Southwest 355 409 19,900 -1,380 Descending Los Angeles Center
03:32PM 34.0756 -115.5750 240° Southwest 351 404 18,500 -1,260 Descending Los Angeles Center
03:33PM 34.0392 -115.6544 241° Southwest 345 397 17,300 -1,800 Descending Los Angeles Center
03:34PM 33.9844 -115.7675 240° Southwest 332 382 14,800 -2,460 Descending Los Angeles Center
03:35PM 33.9411 -115.8578 240° Southwest 322 371 12,300 -2,760 Descending Los Angeles Center
03:36PM 33.8792 -115.9522 232° Southwest 310 357 9,100 -2,760 Descending Los Angeles Center
03:37PM 33.8283 -116.0169 227° Southwest 289 333 6,700 -2,400 Descending Los Angeles Center